This is the latest recevied weather packets stored in our database for station/object I4GOS-3. If no packets are shown the sender has not sent any weather packets the latest 1 day(s).
| Time | Temp. | Humidity | Pressure | Rain* | Wind** | Luminosity | Snow |
|---|---|---|---|---|---|---|---|
| 1778009901 | 16.67° C | 62% | 1013.3 hPa | 0 mm | 1.79 m/s, 131° | - | - |
| 1778009601 | 16.67° C | 61% | 1013.3 hPa | 0 mm | 0 m/s | - | - |
| 1778009301 | 16.67° C | 61% | 1013.3 hPa | 0 mm | 1.79 m/s, 137° | - | - |
| 1778009001 | 16.67° C | 61% | 1013.2 hPa | 0 mm | 1.34 m/s, 118° | - | - |
| 1778008700 | 16.67° C | 61% | 1013.1 hPa | 1.02 mm | 3.58 m/s, 136° | - | - |
| 1778008400 | 16.67° C | 62% | 1013 hPa | 1.27 mm | 3.58 m/s, 118° | - | - |
| 1778008100 | 16.67° C | 62% | 1012.9 hPa | 2.29 mm | 4.02 m/s, 122° | - | - |
| 1778007800 | 16.67° C | 62% | 1012.8 hPa | 2.29 mm | 3.13 m/s, 143° | - | - |
| 1778007500 | 17.22° C | 63% | 1012.7 hPa | 2.54 mm | 3.13 m/s, 129° | - | - |
| 1778007199 | 17.22° C | 64% | 1012.5 hPa | 3.3 mm | 1.79 m/s, 115° | - | - |
| 1778006899 | 17.22° C | 65% | 1012.7 hPa | 3.81 mm | 4.02 m/s, 123° | - | - |
| 1778006599 | 17.22° C | 66% | 1012.7 hPa | 3.81 mm | 1.34 m/s, 123° | - | - |
| 1778006299 | 17.22° C | 67% | 1012.7 hPa | 4.57 mm | 1.34 m/s, 110° | - | - |
| 1778005998 | 17.22° C | 68% | 1012.9 hPa | 3.81 mm | 1.79 m/s, 111° | - | - |
| 1778005698 | 17.22° C | 69% | 1013.2 hPa | 4.32 mm | 0.45 m/s, 145° | - | - |
| 1778005398 | 17.22° C | 70% | 1013.2 hPa | 4.06 mm | 3.58 m/s, 139° | - | - |
| 1778005098 | 17.22° C | 70% | 1013.2 hPa | 3.3 mm | 1.79 m/s, 139° | - | - |
| 1778004797 | 17.22° C | 71% | 1013.1 hPa | 3.56 mm | 3.58 m/s, 138° | - | - |
| 1778004497 | 17.22° C | 72% | 1013.1 hPa | 3.81 mm | 2.24 m/s, 143° | - | - |
| 1778004197 | 17.22° C | 72% | 1013 hPa | 3.3 mm | 4.02 m/s, 135° | - | - |
| 1778003597 | 17.78° C | 73% | 1013 hPa | 3.05 mm | 1.34 m/s, 157° | - | - |
| 1778003295 | 17.78° C | 74% | 1013 hPa | 2.29 mm | 1.34 m/s, 159° | - | - |
| 1778002995 | 17.78° C | 74% | 1012.9 hPa | 2.03 mm | 2.68 m/s, 142° | - | - |
| 1778002691 | 17.78° C | 74% | 1012.9 hPa | 1.78 mm | 0.45 m/s, 160° | - | - |
| 1778002391 | 17.78° C | 74% | 1012.9 hPa | 0 mm | 1.79 m/s, 147° | - | - |
* Rain latest hour (hover to see other rain measurements)
** Current wind speed in m/s (hover to see current wind gust speed)